createdAt,value
2019-02-18T00:00:03.008Z,1017.68
2019-02-18T00:01:03.000Z,1017.73
2019-02-18T00:02:02.989Z,1017.68
2019-02-18T00:03:02.977Z,1017.73
2019-02-18T00:04:02.968Z,1017.68
2019-02-18T00:05:02.954Z,1017.67
2019-02-18T00:06:02.947Z,1017.67
2019-02-18T00:07:02.933Z,1017.66
2019-02-18T00:08:02.926Z,1017.68
2019-02-18T00:09:02.913Z,1017.59
2019-02-18T00:10:02.902Z,1017.62
2019-02-18T00:11:02.892Z,1017.62
2019-02-18T00:12:02.883Z,1017.58
2019-02-18T00:13:02.869Z,1017.61
2019-02-18T00:14:02.860Z,1017.61
2019-02-18T00:15:02.848Z,1017.62
2019-02-18T00:16:02.838Z,1017.60
2019-02-18T00:17:02.827Z,1017.61
2019-02-18T00:18:02.818Z,1017.58
2019-02-18T00:19:02.808Z,1017.57
2019-02-18T00:20:02.798Z,1017.61
2019-02-18T00:21:02.785Z,1017.60
2019-02-18T00:22:02.775Z,1017.59
2019-02-18T00:23:02.765Z,1017.62
2019-02-18T00:24:02.754Z,1017.57
2019-02-18T00:25:02.742Z,1017.54
2019-02-18T00:26:02.733Z,1017.57
2019-02-18T00:27:02.724Z,1017.58
2019-02-18T00:28:03.101Z,1017.55
2019-02-18T00:29:02.707Z,1017.56
2019-02-18T00:30:02.689Z,1017.53
2019-02-18T00:31:02.682Z,1017.58
2019-02-18T00:32:02.670Z,1017.57
2019-02-18T00:33:02.664Z,1017.55
2019-02-18T00:34:02.653Z,1017.52
2019-02-18T00:35:02.637Z,1017.52
2019-02-18T00:36:02.628Z,1017.45
2019-02-18T00:37:02.616Z,1017.51
2019-02-18T00:38:02.608Z,1017.51
2019-02-18T00:39:02.598Z,1017.53
2019-02-18T00:40:02.585Z,1017.57
2019-02-18T00:41:02.575Z,1017.49
2019-02-18T00:42:02.565Z,1017.53
2019-02-18T00:43:02.554Z,1017.47
2019-02-18T00:44:02.545Z,1017.51
2019-02-18T00:45:02.535Z,1017.48
2019-02-18T00:46:02.522Z,1017.47
2019-02-18T00:47:02.514Z,1017.44
2019-02-18T00:48:02.503Z,1017.47
2019-02-18T00:49:02.491Z,1017.48
2019-02-18T00:50:02.482Z,1017.50
2019-02-18T00:51:02.470Z,1017.52
2019-02-18T00:52:02.460Z,1017.48
2019-02-18T00:53:04.078Z,1017.51
2019-02-18T00:54:02.437Z,1017.48
2019-02-18T00:55:02.429Z,1017.56
2019-02-18T00:56:02.417Z,1017.52
2019-02-18T00:57:02.408Z,1017.54
2019-02-18T00:58:02.397Z,1017.55
2019-02-18T00:59:02.390Z,1017.53
2019-02-18T01:00:02.380Z,1017.50
2019-02-18T01:01:02.368Z,1017.51
2019-02-18T01:02:02.355Z,1017.48
2019-02-18T01:03:02.350Z,1017.50
2019-02-18T01:04:02.333Z,1017.52
2019-02-18T01:05:02.323Z,1017.49
2019-02-18T01:06:02.312Z,1017.46
2019-02-18T01:07:02.306Z,1017.50
2019-02-18T01:08:02.291Z,1017.45
2019-02-18T01:09:02.281Z,1017.44
2019-02-18T01:10:02.272Z,1017.51
2019-02-18T01:11:02.263Z,1017.47
2019-02-18T01:12:02.250Z,1017.39
2019-02-18T01:13:02.239Z,1017.41
2019-02-18T01:14:02.233Z,1017.41
2019-02-18T01:15:02.219Z,1017.44
2019-02-18T01:16:02.209Z,1017.45
2019-02-18T01:17:02.202Z,1017.43
2019-02-18T01:18:02.188Z,1017.43
2019-02-18T01:19:02.177Z,1017.43
2019-02-18T01:20:02.164Z,1017.41
2019-02-18T01:21:02.160Z,1017.43
2019-02-18T01:22:02.145Z,1017.39
2019-02-18T01:23:02.136Z,1017.39
2019-02-18T01:24:02.129Z,1017.42
2019-02-18T01:25:02.115Z,1017.35
2019-02-18T01:26:02.104Z,1017.35
2019-02-18T01:27:02.092Z,1017.39
2019-02-18T01:28:02.082Z,1017.40
2019-02-18T01:29:02.072Z,1017.34
2019-02-18T01:30:02.061Z,1017.34
2019-02-18T01:31:02.050Z,1017.34
2019-02-18T01:32:02.041Z,1017.31
2019-02-18T01:33:02.030Z,1017.28
2019-02-18T01:34:02.018Z,1017.29
2019-02-18T01:35:02.009Z,1017.28
2019-02-18T01:36:01.999Z,1017.29
2019-02-18T01:37:01.988Z,1017.28
2019-02-18T01:38:01.977Z,1017.24
2019-02-18T01:39:01.970Z,1017.28
2019-02-18T01:40:01.962Z,1017.24
2019-02-18T01:41:01.948Z,1017.22
2019-02-18T01:42:01.936Z,1017.21
2019-02-18T01:43:01.925Z,1017.19
2019-02-18T01:44:01.916Z,1017.19
2019-02-18T01:45:01.904Z,1017.19
2019-02-18T01:46:01.892Z,1017.20
2019-02-18T01:47:01.884Z,1017.18
2019-02-18T01:48:01.875Z,1017.18
2019-02-18T01:49:01.861Z,1017.17
2019-02-18T01:50:01.857Z,1017.17
2019-02-18T01:51:01.841Z,1017.19
2019-02-18T01:52:01.832Z,1017.16
2019-02-18T01:53:01.854Z,1017.18
2019-02-18T01:54:01.813Z,1017.16
2019-02-18T01:55:01.799Z,1017.14
2019-02-18T01:56:01.792Z,1017.12
2019-02-18T01:57:01.779Z,1017.19
2019-02-18T01:58:01.768Z,1017.15
2019-02-18T01:59:01.757Z,1017.18
2019-02-18T02:00:01.747Z,1017.11
2019-02-18T02:01:01.738Z,1017.11
2019-02-18T02:02:01.725Z,1017.12
2019-02-18T02:03:01.715Z,1017.16
2019-02-18T02:04:01.711Z,1017.13
2019-02-18T02:05:01.693Z,1017.04
2019-02-18T02:06:01.685Z,1017.09
2019-02-18T02:07:01.671Z,1017.07
2019-02-18T02:08:01.664Z,1017.01
2019-02-18T02:09:01.656Z,1017.05
2019-02-18T02:10:01.641Z,1017.05
2019-02-18T02:11:01.631Z,1017.09
2019-02-18T02:12:01.625Z,1017.09
2019-02-18T02:13:01.612Z,1017.09
2019-02-18T02:14:01.599Z,1017.05
2019-02-18T02:15:01.596Z,1017.07
2019-02-18T02:16:01.579Z,1017.07
2019-02-18T02:17:01.573Z,1017.07
2019-02-18T02:18:01.557Z,1017.07
2019-02-18T02:19:01.546Z,1017.03
2019-02-18T02:20:01.541Z,1017.07
2019-02-18T02:21:01.526Z,1017.03
2019-02-18T02:22:01.517Z,1017.05
2019-02-18T02:23:01.505Z,1017.06
2019-02-18T02:24:01.496Z,1017.05
2019-02-18T02:25:01.491Z,1017.03
2019-02-18T02:26:01.473Z,1016.99
2019-02-18T02:27:01.464Z,1017.01
2019-02-18T02:28:01.455Z,1017.02
2019-02-18T02:29:01.443Z,1017.03
2019-02-18T02:30:01.445Z,1016.99
2019-02-18T02:31:01.598Z,1017.00
2019-02-18T02:32:01.414Z,1016.97
2019-02-18T02:33:01.401Z,1016.95
2019-02-18T02:34:01.392Z,1016.93
2019-02-18T02:35:01.386Z,1016.91
2019-02-18T02:36:01.369Z,1016.91
2019-02-18T02:37:01.361Z,1016.90
2019-02-18T02:38:07.829Z,1016.87
2019-02-18T02:39:02.336Z,1016.86
2019-02-18T02:40:01.328Z,1016.90
2019-02-18T02:41:01.324Z,1016.88
2019-02-18T02:42:01.306Z,1016.93
2019-02-18T02:43:01.295Z,1016.93
2019-02-18T02:44:01.286Z,1016.84
2019-02-18T02:45:01.294Z,1016.82
2019-02-18T02:46:01.270Z,1016.92
2019-02-18T02:47:01.257Z,1016.90
2019-02-18T02:48:01.244Z,1016.88
2019-02-18T02:49:01.237Z,1016.90
2019-02-18T02:50:01.232Z,1016.87
2019-02-18T02:51:01.215Z,1016.80
2019-02-18T02:52:01.206Z,1016.85
2019-02-18T02:53:01.193Z,1016.84
2019-02-18T02:54:01.180Z,1016.77
2019-02-18T02:55:01.171Z,1016.76
2019-02-18T02:56:01.161Z,1016.73
2019-02-18T02:57:01.148Z,1016.69
2019-02-18T02:58:01.141Z,1016.77
2019-02-18T02:59:01.134Z,1016.73
2019-02-18T03:00:01.125Z,1016.71
2019-02-18T03:01:01.129Z,1016.74
2019-02-18T03:02:01.099Z,1016.75
2019-02-18T03:03:01.086Z,1016.71
2019-02-18T03:04:01.078Z,1016.72
2019-02-18T03:05:01.066Z,1016.75
2019-02-18T03:06:01.054Z,1016.76
2019-02-18T03:07:01.050Z,1016.73
2019-02-18T03:08:01.048Z,1016.76
2019-02-18T03:09:01.027Z,1016.71
2019-02-18T03:10:01.015Z,1016.69
2019-02-18T03:11:01.005Z,1016.75
2019-02-18T03:12:00.994Z,1016.74
2019-02-18T03:13:00.985Z,1016.74
2019-02-18T03:14:00.975Z,1016.74
2019-02-18T03:15:00.961Z,1016.69
2019-02-18T03:16:00.951Z,1016.72
2019-02-18T03:17:00.942Z,1016.68
2019-02-18T03:18:00.933Z,1016.73
2019-02-18T03:19:00.929Z,1016.73
2019-02-18T03:20:00.915Z,1016.78
2019-02-18T03:21:00.900Z,1016.78
2019-02-18T03:22:00.888Z,1016.73
2019-02-18T03:23:00.881Z,1016.71
2019-02-18T03:24:00.871Z,1016.76
2019-02-18T03:25:00.856Z,1016.80
2019-02-18T03:26:00.850Z,1016.79
2019-02-18T03:27:00.837Z,1016.76
2019-02-18T03:28:00.826Z,1016.78
2019-02-18T03:29:00.819Z,1016.83
2019-02-18T03:30:00.812Z,1016.79
2019-02-18T03:31:00.800Z,1016.82
2019-02-18T03:32:00.792Z,1016.83
2019-02-18T03:33:00.785Z,1016.78
2019-02-18T03:34:00.774Z,1016.76
2019-02-18T03:35:01.227Z,1016.77
2019-02-18T03:36:00.749Z,1016.80
2019-02-18T03:37:00.732Z,1016.82
2019-02-18T03:38:00.724Z,1016.78
2019-02-18T03:39:00.711Z,1016.80
2019-02-18T03:40:00.731Z,1016.78
2019-02-18T03:41:03.399Z,1016.79
2019-02-18T03:42:00.681Z,1016.77
2019-02-18T03:43:00.676Z,1016.81
2019-02-18T03:44:00.660Z,1016.76
2019-02-18T03:45:00.651Z,1016.84
2019-02-18T03:46:00.638Z,1016.84
2019-02-18T03:47:00.629Z,1016.85
2019-02-18T03:48:00.616Z,1016.83
2019-02-18T03:49:00.607Z,1016.85
2019-02-18T03:50:00.627Z,1016.85
2019-02-18T03:51:00.585Z,1016.82
2019-02-18T03:52:00.586Z,1016.85
2019-02-18T03:53:00.566Z,1016.86
2019-02-18T03:54:00.553Z,1016.85
2019-02-18T03:55:00.543Z,1016.87
2019-02-18T03:56:00.535Z,1016.84
2019-02-18T03:57:00.523Z,1016.84
2019-02-18T03:58:00.512Z,1016.82
2019-02-18T03:59:00.503Z,1016.83
2019-02-18T04:00:00.492Z,1016.83
2019-02-18T04:01:00.481Z,1016.79
2019-02-18T04:02:00.484Z,1016.78
2019-02-18T04:03:00.462Z,1016.80
2019-02-18T04:04:00.452Z,1016.79
2019-02-18T04:05:00.438Z,1016.79
2019-02-18T04:06:00.429Z,1016.76
2019-02-18T04:07:00.417Z,1016.78
2019-02-18T04:08:00.409Z,1016.79
2019-02-18T04:09:00.398Z,1016.78
2019-02-18T04:10:00.440Z,1016.82
2019-02-18T04:11:00.378Z,1016.72
2019-02-18T04:12:00.367Z,1016.78
2019-02-18T04:13:00.360Z,1016.80
2019-02-18T04:14:00.343Z,1016.76
2019-02-18T04:15:00.515Z,1016.74
2019-02-18T04:16:00.324Z,1016.81
2019-02-18T04:17:00.320Z,1016.79
2019-02-18T04:18:00.303Z,1016.79
2019-02-18T04:19:00.293Z,1016.79
2019-02-18T04:20:00.325Z,1016.77
2019-02-18T04:21:00.272Z,1016.79
2019-02-18T04:22:00.262Z,1016.76
2019-02-18T04:23:00.251Z,1016.74
2019-02-18T04:24:00.241Z,1016.76
2019-02-18T04:25:00.333Z,1016.75
2019-02-18T04:26:00.219Z,1016.79
2019-02-18T04:27:00.209Z,1016.78
2019-02-18T04:28:00.200Z,1016.73
2019-02-18T04:29:00.188Z,1016.74
2019-02-18T04:30:00.403Z,1016.81
2019-02-18T04:31:00.166Z,1016.77
2019-02-18T04:32:00.159Z,1016.73
2019-02-18T04:33:00.146Z,1016.76
2019-02-18T04:34:00.140Z,1016.75
2019-02-18T04:35:00.239Z,1016.75
2019-02-18T04:36:00.114Z,1016.72
2019-02-18T04:37:00.111Z,1016.80
2019-02-18T04:38:00.096Z,1016.78
2019-02-18T04:39:00.083Z,1016.78
2019-02-18T04:40:00.419Z,1016.78
2019-02-18T04:41:00.063Z,1016.71
2019-02-18T04:42:00.052Z,1016.76
2019-02-18T04:43:00.041Z,1016.69
2019-02-18T04:44:00.033Z,1016.71
2019-02-18T04:45:00.085Z,1016.77
2019-02-18T04:46:00.017Z,1016.75
2019-02-18T04:46:59.999Z,1016.70
2019-02-18T04:47:59.989Z,1016.79
2019-02-18T04:48:59.981Z,1016.79
2019-02-18T04:49:59.972Z,1016.77
2019-02-18T04:50:59.959Z,1016.82
2019-02-18T04:51:59.948Z,1016.76
2019-02-18T04:52:59.936Z,1016.80
2019-02-18T04:53:59.928Z,1016.80
2019-02-18T04:54:59.919Z,1016.79
2019-02-18T04:55:59.906Z,1016.77
2019-02-18T04:56:59.896Z,1016.79
2019-02-18T04:57:59.886Z,1016.80
2019-02-18T04:58:59.878Z,1016.84
2019-02-18T04:59:59.864Z,1016.78
2019-02-18T05:01:02.811Z,1016.77
2019-02-18T05:01:59.846Z,1016.83
2019-02-18T05:02:59.835Z,1016.81
2019-02-18T05:03:59.821Z,1016.74
2019-02-18T05:04:59.867Z,1016.76
2019-02-18T05:05:59.806Z,1016.73
2019-02-18T05:06:59.793Z,1016.76
2019-02-18T05:07:59.780Z,1016.74
2019-02-18T05:09:05.401Z,1016.74
2019-02-18T05:10:00.763Z,1016.73
2019-02-18T05:10:59.751Z,1016.69
2019-02-18T05:11:59.739Z,1016.65
2019-02-18T05:12:59.730Z,1016.66
2019-02-18T05:13:59.720Z,1016.65
2019-02-18T05:14:59.708Z,1016.67
2019-02-18T05:15:59.698Z,1016.61
2019-02-18T05:16:59.686Z,1016.63
2019-02-18T05:17:59.679Z,1016.61
2019-02-18T05:18:59.666Z,1016.59
2019-02-18T05:19:59.657Z,1016.57
2019-02-18T05:20:59.644Z,1016.61
2019-02-18T05:21:59.634Z,1016.57
2019-02-18T05:22:59.624Z,1016.58
2019-02-18T05:23:59.614Z,1016.57
2019-02-18T05:24:59.603Z,1016.53
2019-02-18T05:25:59.592Z,1016.51
2019-02-18T05:26:59.581Z,1016.50
2019-02-18T05:27:59.580Z,1016.51
2019-02-18T05:28:59.561Z,1016.51
2019-02-18T05:29:59.552Z,1016.60
2019-02-18T05:30:59.542Z,1016.58
2019-02-18T05:31:59.533Z,1016.61
2019-02-18T05:32:59.536Z,1016.57
2019-02-18T05:33:59.512Z,1016.55
2019-02-18T05:34:59.500Z,1016.61
2019-02-18T05:35:59.488Z,1016.61
2019-02-18T05:36:59.478Z,1016.58
2019-02-18T05:37:59.472Z,1016.54
2019-02-18T05:38:59.458Z,1016.59
2019-02-18T05:39:59.447Z,1016.59
2019-02-18T05:40:59.438Z,1016.55
2019-02-18T05:41:59.425Z,1016.57
2019-02-18T05:42:59.419Z,1016.58
2019-02-18T05:43:59.406Z,1016.56
2019-02-18T05:44:59.400Z,1016.54
2019-02-18T05:45:59.386Z,1016.57
2019-02-18T05:46:59.373Z,1016.56
2019-02-18T05:47:59.366Z,1016.60
2019-02-18T05:48:59.353Z,1016.56
2019-02-18T05:49:59.342Z,1016.54
2019-02-18T05:50:59.334Z,1016.55
2019-02-18T05:51:59.323Z,1016.54
2019-02-18T05:52:59.310Z,1016.53
2019-02-18T05:53:59.302Z,1016.53
2019-02-18T05:54:59.295Z,1016.56
2019-02-18T05:55:59.280Z,1016.53
2019-02-18T05:56:59.268Z,1016.54
2019-02-18T05:57:59.258Z,1016.55
2019-02-18T05:58:59.249Z,1016.50
2019-02-18T05:59:59.247Z,1016.53
2019-02-18T06:00:59.229Z,1016.50
2019-02-18T06:01:59.224Z,1016.57
2019-02-18T06:02:59.207Z,1016.56
2019-02-18T06:04:00.190Z,1016.56
2019-02-18T06:04:59.198Z,1016.57
2019-02-18T06:05:59.183Z,1016.56
2019-02-18T06:06:59.205Z,1016.62
2019-02-18T06:07:59.158Z,1016.58
2019-02-18T06:08:59.147Z,1016.58
2019-02-18T06:09:59.134Z,1016.62
2019-02-18T06:10:59.173Z,1016.63
2019-02-18T06:11:59.115Z,1016.63
2019-02-18T06:12:59.116Z,1016.63
2019-02-18T06:13:59.093Z,1016.60
2019-02-18T06:14:59.081Z,1016.58
2019-02-18T06:15:59.071Z,1016.66
2019-02-18T06:16:59.059Z,1016.67
2019-02-18T06:17:59.051Z,1016.65
2019-02-18T06:18:59.042Z,1016.65
2019-02-18T06:19:59.031Z,1016.68
2019-02-18T06:20:59.020Z,1016.67
2019-02-18T06:21:59.033Z,1016.63
2019-02-18T06:22:59.021Z,1016.64
2019-02-18T06:23:58.992Z,1016.63
2019-02-18T06:24:58.975Z,1016.68
2019-02-18T06:25:58.967Z,1016.69
2019-02-18T06:26:58.956Z,1016.68
2019-02-18T06:27:58.944Z,1016.74
2019-02-18T06:28:58.937Z,1016.65
2019-02-18T06:29:58.925Z,1016.65
2019-02-18T06:30:58.914Z,1016.65
2019-02-18T06:31:58.908Z,1016.67
2019-02-18T06:33:01.065Z,1016.64
2019-02-18T06:33:58.936Z,1016.70
2019-02-18T06:34:58.871Z,1016.70
2019-02-18T06:35:58.863Z,1016.76
2019-02-18T06:36:58.856Z,1016.68
2019-02-18T06:37:58.840Z,1016.71
2019-02-18T06:38:58.830Z,1016.71
2019-02-18T06:39:58.824Z,1016.82
2019-02-18T06:40:58.813Z,1016.76
2019-02-18T06:41:58.805Z,1016.81
2019-02-18T06:42:58.789Z,1016.79
2019-02-18T06:43:58.777Z,1016.75
2019-02-18T06:44:58.766Z,1016.77
2019-02-18T06:45:58.756Z,1016.75
2019-02-18T06:46:58.746Z,1016.76
2019-02-18T06:47:58.736Z,1016.82
2019-02-18T06:48:58.724Z,1016.84
2019-02-18T06:49:58.715Z,1016.81
2019-02-18T06:50:58.709Z,1016.82
2019-02-18T06:51:58.694Z,1016.82
2019-02-18T06:52:58.687Z,1016.82
2019-02-18T06:53:58.674Z,1016.82
2019-02-18T06:54:58.664Z,1016.85
2019-02-18T06:55:58.653Z,1016.86
2019-02-18T06:56:58.645Z,1016.88
2019-02-18T06:57:58.631Z,1016.88
2019-02-18T06:58:58.622Z,1016.91
2019-02-18T06:59:58.610Z,1016.89
2019-02-18T07:00:58.600Z,1016.89
2019-02-18T07:01:58.592Z,1016.93
2019-02-18T07:02:58.579Z,1016.93
2019-02-18T07:03:58.570Z,1016.92
2019-02-18T07:04:58.558Z,1016.94
2019-02-18T07:05:58.550Z,1016.92
2019-02-18T07:06:58.540Z,1016.84
2019-02-18T07:07:58.533Z,1016.86
2019-02-18T07:08:58.516Z,1016.89
2019-02-18T07:09:58.508Z,1016.93
2019-02-18T07:10:58.495Z,1016.91
2019-02-18T07:11:58.485Z,1016.94
2019-02-18T07:12:58.475Z,1016.93
2019-02-18T07:13:58.470Z,1016.91
2019-02-18T07:14:58.454Z,1016.95
2019-02-18T07:15:58.445Z,1016.92
2019-02-18T07:16:58.433Z,1016.93
2019-02-18T07:17:58.422Z,1016.88
2019-02-18T07:18:58.411Z,1016.92
2019-02-18T07:19:58.404Z,1016.90
2019-02-18T07:20:58.394Z,1016.87
2019-02-18T07:21:58.385Z,1016.96
2019-02-18T07:22:58.371Z,1016.96
2019-02-18T07:23:58.363Z,1016.93
2019-02-18T07:24:58.352Z,1016.88
2019-02-18T07:25:58.341Z,1016.92
2019-02-18T07:26:58.334Z,1016.95
2019-02-18T07:27:58.320Z,1016.94
2019-02-18T07:28:58.310Z,1016.93
2019-02-18T07:29:58.299Z,1016.92
2019-02-18T07:30:58.289Z,1016.93
2019-02-18T07:31:58.279Z,1016.94
2019-02-18T07:32:58.270Z,1016.94
2019-02-18T07:33:58.264Z,1016.94
2019-02-18T07:34:58.248Z,1016.96
2019-02-18T07:35:58.248Z,1016.93
2019-02-18T07:36:58.226Z,1017.02
2019-02-18T07:37:58.216Z,1016.99
2019-02-18T07:39:05.160Z,1016.94
2019-02-18T07:40:01.893Z,1016.95
2019-02-18T07:40:58.187Z,1016.90
2019-02-18T07:41:58.172Z,1016.90
2019-02-18T07:42:58.161Z,1016.94
2019-02-18T07:43:58.162Z,1016.89
2019-02-18T07:44:58.139Z,1016.93
2019-02-18T07:45:58.129Z,1016.90
2019-02-18T07:46:58.120Z,1016.88
2019-02-18T07:47:58.111Z,1016.88
2019-02-18T07:48:58.097Z,1016.92
2019-02-18T07:49:58.087Z,1016.88
2019-02-18T07:50:58.078Z,1016.93
2019-02-18T07:51:58.067Z,1016.95
2019-02-18T07:52:58.056Z,1016.92
2019-02-18T07:53:58.044Z,1016.93
2019-02-18T07:54:58.036Z,1016.97
2019-02-18T07:55:58.024Z,1016.98
2019-02-18T07:56:58.015Z,1016.98
2019-02-18T07:57:58.003Z,1016.98
2019-02-18T07:58:57.991Z,1016.96
2019-02-18T07:59:57.981Z,1016.93
2019-02-18T08:00:57.979Z,1016.94
2019-02-18T08:01:57.959Z,1016.97
2019-02-18T08:02:57.954Z,1016.88
2019-02-18T08:03:57.939Z,1016.89
2019-02-18T08:04:57.930Z,1016.86
2019-02-18T08:05:57.919Z,1016.83
2019-02-18T08:06:57.911Z,1016.85
2019-02-18T08:07:57.896Z,1016.85
2019-02-18T08:08:57.889Z,1016.83
2019-02-18T08:09:57.874Z,1016.80
2019-02-18T08:10:57.864Z,1016.77
2019-02-18T08:11:57.853Z,1016.72
2019-02-18T08:12:57.844Z,1016.76
2019-02-18T08:13:57.835Z,1016.80
2019-02-18T08:14:57.824Z,1016.77
2019-02-18T08:15:57.813Z,1016.79
2019-02-18T08:16:57.802Z,1016.78
2019-02-18T08:17:57.790Z,1016.73
2019-02-18T08:18:57.779Z,1016.71
2019-02-18T08:19:57.772Z,1016.76
2019-02-18T08:20:57.756Z,1016.76
2019-02-18T08:21:57.747Z,1016.79
2019-02-18T08:22:57.737Z,1016.82
2019-02-18T08:24:00.302Z,1016.81
2019-02-18T08:24:57.716Z,1016.81
2019-02-18T08:25:57.705Z,1016.73
2019-02-18T08:26:57.702Z,1016.77
2019-02-18T08:27:57.683Z,1016.79
2019-02-18T08:28:57.672Z,1016.82
2019-02-18T08:29:57.662Z,1016.79
2019-02-18T08:30:57.650Z,1016.79
2019-02-18T08:31:57.638Z,1016.80
2019-02-18T08:32:57.628Z,1016.80
2019-02-18T08:33:57.620Z,1016.74
2019-02-18T08:34:57.607Z,1016.73
2019-02-18T08:35:57.597Z,1016.66
2019-02-18T08:36:57.594Z,1016.63
2019-02-18T08:37:57.576Z,1016.65
2019-02-18T08:38:57.565Z,1016.63
2019-02-18T08:39:57.557Z,1016.67
2019-02-18T08:40:57.541Z,1016.61
2019-02-18T08:41:57.532Z,1016.62
2019-02-18T08:42:57.523Z,1016.69
2019-02-18T08:43:57.510Z,1016.73
2019-02-18T08:44:57.498Z,1016.73
2019-02-18T08:45:57.487Z,1016.73
2019-02-18T08:46:57.476Z,1016.71
2019-02-18T08:47:57.465Z,1016.75
2019-02-18T08:48:57.456Z,1016.71
2019-02-18T08:49:57.445Z,1016.73
2019-02-18T08:50:57.437Z,1016.70
2019-02-18T08:51:57.422Z,1016.69
2019-02-18T08:52:57.411Z,1016.72
2019-02-18T08:53:57.400Z,1016.73
2019-02-18T08:54:57.411Z,1016.78
2019-02-18T08:55:57.379Z,1016.76
2019-02-18T08:56:57.367Z,1016.71
2019-02-18T08:57:57.358Z,1016.75
2019-02-18T08:58:57.347Z,1016.75
2019-02-18T08:59:57.335Z,1016.77
2019-02-18T09:01:02.572Z,1016.71
2019-02-18T09:01:58.313Z,1016.82
2019-02-18T09:02:57.302Z,1016.78
2019-02-18T09:03:57.293Z,1016.78
2019-02-18T09:04:57.289Z,1016.78
2019-02-18T09:05:57.275Z,1016.77
2019-02-18T09:06:57.264Z,1016.71
2019-02-18T09:07:57.253Z,1016.76
2019-02-18T09:08:57.240Z,1016.77
2019-02-18T09:09:57.227Z,1016.77
2019-02-18T09:10:57.217Z,1016.82
2019-02-18T09:11:57.239Z,1016.80
2019-02-18T09:12:57.195Z,1016.80
2019-02-18T09:13:57.191Z,1016.77
2019-02-18T09:14:57.178Z,1016.76
2019-02-18T09:15:59.990Z,1016.77
2019-02-18T09:16:57.152Z,1016.75
2019-02-18T09:17:57.199Z,1016.76
2019-02-18T09:18:57.132Z,1016.71
2019-02-18T09:19:57.124Z,1016.74
2019-02-18T09:20:57.110Z,1016.75
2019-02-18T09:21:57.101Z,1016.77
2019-02-18T09:22:57.150Z,1016.74
2019-02-18T09:23:57.078Z,1016.77
2019-02-18T09:24:57.070Z,1016.76
2019-02-18T09:25:57.058Z,1016.74
2019-02-18T09:26:57.044Z,1016.70
2019-02-18T09:27:57.034Z,1016.69
2019-02-18T09:28:57.022Z,1016.72
2019-02-18T09:29:57.016Z,1016.68
2019-02-18T09:30:57.004Z,1016.67
2019-02-18T09:31:56.992Z,1016.67
2019-02-18T09:32:56.980Z,1016.69
2019-02-18T09:33:56.971Z,1016.69
2019-02-18T09:35:01.942Z,1016.74
2019-02-18T09:35:57.950Z,1016.72
2019-02-18T09:36:56.940Z,1016.68
2019-02-18T09:37:56.928Z,1016.67
2019-02-18T09:38:56.919Z,1016.68
2019-02-18T09:39:56.912Z,1016.65
2019-02-18T09:40:56.895Z,1016.67
2019-02-18T09:41:56.887Z,1016.65
2019-02-18T09:42:56.874Z,1016.65
2019-02-18T09:43:56.864Z,1016.63
2019-02-18T09:44:56.851Z,1016.64
2019-02-18T09:45:56.842Z,1016.60
2019-02-18T09:46:56.831Z,1016.58
2019-02-18T09:47:56.826Z,1016.60
2019-02-18T09:48:56.811Z,1016.62
2019-02-18T09:49:56.802Z,1016.61
2019-02-18T09:50:56.791Z,1016.63
2019-02-18T09:51:56.782Z,1016.66
2019-02-18T09:52:56.770Z,1016.67
2019-02-18T09:53:56.762Z,1016.68
2019-02-18T09:54:56.747Z,1016.64
2019-02-18T09:55:56.738Z,1016.60
2019-02-18T09:56:56.725Z,1016.62
2019-02-18T09:57:56.717Z,1016.58
2019-02-18T09:58:56.703Z,1016.57
2019-02-18T09:59:56.697Z,1016.58
2019-02-18T10:00:56.684Z,1016.62
2019-02-18T10:01:56.672Z,1016.59
2019-02-18T10:02:56.661Z,1016.54
2019-02-18T10:03:56.650Z,1016.60
2019-02-18T10:04:56.642Z,1016.56
2019-02-18T10:05:56.629Z,1016.50
2019-02-18T10:06:56.634Z,1016.52
2019-02-18T10:07:56.608Z,1016.55
2019-02-18T10:08:56.614Z,1016.52
2019-02-18T10:09:56.587Z,1016.59
2019-02-18T10:10:56.666Z,1016.57
2019-02-18T10:11:56.567Z,1016.53
2019-02-18T10:12:56.559Z,1016.57
2019-02-18T10:13:56.548Z,1016.58
2019-02-18T10:14:56.538Z,1016.59
2019-02-18T10:15:56.527Z,1016.60
2019-02-18T10:16:56.518Z,1016.58
2019-02-18T10:17:56.505Z,1016.56
2019-02-18T10:18:56.492Z,1016.57
2019-02-18T10:19:56.484Z,1016.57
2019-02-18T10:20:56.481Z,1016.56
2019-02-18T10:21:56.464Z,1016.56
2019-02-18T10:22:56.450Z,1016.56
2019-02-18T10:23:56.438Z,1016.52
2019-02-18T10:24:56.431Z,1016.53
2019-02-18T10:25:56.417Z,1016.57
2019-02-18T10:26:56.407Z,1016.55
2019-02-18T10:27:56.396Z,1016.54
2019-02-18T10:28:56.385Z,1016.53
2019-02-18T10:29:56.377Z,1016.58
2019-02-18T10:30:56.365Z,1016.56
2019-02-18T10:31:56.354Z,1016.52
2019-02-18T10:32:56.345Z,1016.48
2019-02-18T10:33:56.334Z,1016.46
2019-02-18T10:34:56.323Z,1016.41
2019-02-18T10:35:56.314Z,1016.44
2019-02-18T10:36:56.301Z,1016.44
2019-02-18T10:37:56.292Z,1016.43
2019-02-18T10:38:56.280Z,1016.41
2019-02-18T10:39:56.272Z,1016.41
2019-02-18T10:41:06.169Z,1016.42
2019-02-18T10:41:57.247Z,1016.44
2019-02-18T10:42:56.244Z,1016.41
2019-02-18T10:43:56.232Z,1016.42
2019-02-18T10:44:56.219Z,1016.40
2019-02-18T10:45:56.207Z,1016.40
2019-02-18T10:46:56.197Z,1016.35
2019-02-18T10:47:56.190Z,1016.36
2019-02-18T10:48:56.176Z,1016.34
2019-02-18T10:49:56.166Z,1016.33
2019-02-18T10:50:56.161Z,1016.29
2019-02-18T10:51:56.151Z,1016.31
2019-02-18T10:52:56.141Z,1016.31
2019-02-18T10:53:56.122Z,1016.29
2019-02-18T10:54:56.165Z,1016.27
2019-02-18T10:55:56.102Z,1016.29
2019-02-18T10:56:56.091Z,1016.26
2019-02-18T10:57:56.080Z,1016.20
2019-02-18T10:58:56.070Z,1016.24
2019-02-18T10:59:56.059Z,1016.17
2019-02-18T11:00:56.048Z,1016.20
2019-02-18T11:01:56.040Z,1016.22
2019-02-18T11:02:56.028Z,1016.23
2019-02-18T11:03:56.016Z,1016.22
2019-02-18T11:04:56.006Z,1016.21
2019-02-18T11:05:55.995Z,1016.26
2019-02-18T11:06:55.985Z,1016.21
2019-02-18T11:07:55.978Z,1016.18
2019-02-18T11:08:55.964Z,1016.14
2019-02-18T11:09:55.954Z,1016.14
2019-02-18T11:10:55.945Z,1016.16
2019-02-18T11:11:55.933Z,1016.13
2019-02-18T11:12:55.921Z,1016.09
2019-02-18T11:13:55.912Z,1016.07
2019-02-18T11:14:55.901Z,1016.08
2019-02-18T11:15:55.891Z,1016.08
2019-02-18T11:16:55.882Z,1016.07
2019-02-18T11:17:55.870Z,1016.06
2019-02-18T11:18:55.860Z,1016.06
2019-02-18T11:19:55.850Z,1016.04
2019-02-18T11:20:55.838Z,1016.00
2019-02-18T11:21:55.826Z,1016.02
2019-02-18T11:22:55.823Z,1016.01
2019-02-18T11:23:55.807Z,1015.99
2019-02-18T11:24:55.794Z,1015.95
2019-02-18T11:25:55.785Z,1015.97
2019-02-18T11:26:55.775Z,1015.97
2019-02-18T11:27:55.766Z,1015.97
2019-02-18T11:28:55.755Z,1015.94
2019-02-18T11:29:55.743Z,1015.86
2019-02-18T11:30:55.732Z,1015.85
2019-02-18T11:31:55.724Z,1015.80
2019-02-18T11:32:55.712Z,1015.84
2019-02-18T11:33:55.703Z,1015.78
2019-02-18T11:34:55.690Z,1015.81
2019-02-18T11:35:55.682Z,1015.80
2019-02-18T11:36:55.673Z,1015.80
2019-02-18T11:37:55.660Z,1015.81
2019-02-18T11:38:55.653Z,1015.82
2019-02-18T11:39:55.641Z,1015.82
2019-02-18T11:40:55.633Z,1015.80
2019-02-18T11:41:55.620Z,1015.77
2019-02-18T11:42:55.612Z,1015.79
2019-02-18T11:43:55.604Z,1015.78
2019-02-18T11:44:55.594Z,1015.76
2019-02-18T11:45:55.583Z,1015.72
2019-02-18T11:46:55.573Z,1015.69
2019-02-18T11:47:55.562Z,1015.70
2019-02-18T11:48:55.549Z,1015.69
2019-02-18T11:49:55.540Z,1015.79
2019-02-18T11:50:55.528Z,1015.76
2019-02-18T11:51:55.518Z,1015.75
2019-02-18T11:52:55.509Z,1015.73
2019-02-18T11:53:55.498Z,1015.70
2019-02-18T11:54:55.488Z,1015.76
2019-02-18T11:55:55.478Z,1015.73
2019-02-18T11:56:55.465Z,1015.68
2019-02-18T11:57:55.457Z,1015.69
2019-02-18T11:58:55.449Z,1015.61
2019-02-18T11:59:55.437Z,1015.60
2019-02-18T12:00:55.433Z,1015.56
2019-02-18T12:01:55.418Z,1015.58
2019-02-18T12:03:02.846Z,1015.55
2019-02-18T12:03:56.390Z,1015.55
2019-02-18T12:04:55.380Z,1015.55